createdAt,value
2023-03-29T00:00:14.648Z,45.8470
2023-03-29T00:01:35.051Z,45.8442
2023-03-29T00:02:17.918Z,45.8169
2023-03-29T00:03:19.729Z,45.7851
2023-03-29T00:04:21.226Z,45.8061
2023-03-29T00:05:22.853Z,45.8117
2023-03-29T00:06:24.532Z,45.8401
2023-03-29T00:07:26.183Z,45.8478
2023-03-29T00:08:27.836Z,45.8852
2023-03-29T00:09:29.484Z,45.8433
2023-03-29T00:10:31.120Z,45.7879
2023-03-29T00:11:32.800Z,45.7994
2023-03-29T00:12:34.428Z,45.8840
2023-03-29T00:13:36.128Z,45.8824
2023-03-29T00:14:37.734Z,45.8846
2023-03-29T00:15:39.405Z,45.9033
2023-03-29T00:16:41.071Z,45.8659
2023-03-29T00:17:42.767Z,45.8511
2023-03-29T00:18:44.385Z,45.8839
2023-03-29T00:19:46.023Z,45.8570
2023-03-29T00:20:47.666Z,45.8510
2023-03-29T00:21:49.322Z,45.8630
2023-03-29T00:22:50.967Z,45.9071
2023-03-29T00:23:52.670Z,45.8836
2023-03-29T00:24:54.319Z,45.8974
2023-03-29T00:25:55.957Z,45.8935
2023-03-29T00:26:57.610Z,45.9244
2023-03-29T00:27:59.268Z,45.9183
2023-03-29T00:29:00.943Z,45.8901
2023-03-29T00:30:02.570Z,45.8586
2023-03-29T00:31:04.430Z,45.8536
2023-03-29T00:32:05.877Z,45.8788
2023-03-29T00:33:07.554Z,45.8766
2023-03-29T00:34:09.199Z,45.8946
2023-03-29T00:35:10.825Z,45.9464
2023-03-29T00:36:12.497Z,45.9398
2023-03-29T00:37:14.112Z,45.8787
2023-03-29T00:38:15.798Z,45.8645
2023-03-29T00:39:17.449Z,45.8806
2023-03-29T00:40:19.099Z,45.8649
2023-03-29T00:41:20.734Z,45.8470
2023-03-29T00:42:22.407Z,45.8883
2023-03-29T00:43:24.041Z,45.8606
2023-03-29T00:44:25.744Z,45.8752
2023-03-29T00:45:27.354Z,45.8817
2023-03-29T00:46:29.108Z,45.8645
2023-03-29T00:47:30.671Z,45.8740
2023-03-29T00:48:32.383Z,45.8908
2023-03-29T00:49:33.994Z,45.9186
2023-03-29T00:50:35.647Z,45.9064
2023-03-29T00:51:37.291Z,45.9338
2023-03-29T00:52:38.950Z,45.9281
2023-03-29T00:53:40.580Z,45.9360
2023-03-29T00:54:42.294Z,45.9534
2023-03-29T00:55:43.895Z,45.9371
2023-03-29T00:56:45.578Z,45.9387
2023-03-29T00:57:47.200Z,45.9115
2023-03-29T00:58:48.871Z,45.9179
2023-03-29T00:59:50.579Z,45.9305
2023-03-29T01:00:52.206Z,45.9092
2023-03-29T01:01:53.871Z,45.9054
2023-03-29T01:02:55.538Z,45.8513
2023-03-29T01:03:57.154Z,45.8826
2023-03-29T01:04:58.817Z,45.8949
2023-03-29T01:06:00.462Z,45.8977
2023-03-29T01:07:02.159Z,45.8859
2023-03-29T01:08:03.757Z,45.9059
2023-03-29T01:09:05.419Z,45.9129
2023-03-29T01:10:07.085Z,45.9150
2023-03-29T01:11:08.735Z,45.9033
2023-03-29T01:12:10.388Z,45.9119
2023-03-29T01:13:12.043Z,45.8980
2023-03-29T01:14:13.684Z,45.9155
2023-03-29T01:15:15.398Z,45.9029
2023-03-29T01:16:17.094Z,45.8957
2023-03-29T01:17:18.683Z,45.8917
2023-03-29T01:18:20.307Z,45.8656
2023-03-29T01:19:21.977Z,45.9173
2023-03-29T01:20:23.635Z,45.9191
2023-03-29T01:21:25.285Z,45.9104
2023-03-29T01:22:26.931Z,45.9078
2023-03-29T01:23:28.599Z,45.8968
2023-03-29T01:24:30.225Z,45.9064
2023-03-29T01:25:31.918Z,45.9265
2023-03-29T01:26:33.540Z,45.8922
2023-03-29T01:27:35.208Z,45.8775
2023-03-29T01:28:36.847Z,45.8779
2023-03-29T01:29:38.507Z,45.8704
2023-03-29T01:30:40.173Z,45.8372
2023-03-29T01:31:41.902Z,45.8689
2023-03-29T01:32:43.450Z,45.8907
2023-03-29T01:33:45.142Z,45.9171
2023-03-29T01:34:46.802Z,45.9094
2023-03-29T01:35:48.521Z,45.9231
2023-03-29T01:36:50.073Z,45.9630
2023-03-29T01:37:51.760Z,46.0178
2023-03-29T01:38:53.401Z,46.0349
2023-03-29T01:39:55.061Z,46.0301
2023-03-29T01:40:56.722Z,45.9678
2023-03-29T01:41:58.367Z,45.9530
2023-03-29T01:43:00.024Z,45.9802
2023-03-29T01:44:01.692Z,46.0179
2023-03-29T01:45:03.325Z,46.1898
2023-03-29T01:46:05.454Z,46.9632
2023-03-29T01:47:06.630Z,47.3878
2023-03-29T01:48:08.303Z,48.2249
2023-03-29T01:49:09.950Z,47.8966
2023-03-29T01:50:11.620Z,47.9090
2023-03-29T01:51:13.316Z,48.1914
2023-03-29T01:52:14.941Z,48.2824
2023-03-29T01:53:16.572Z,48.4558
2023-03-29T01:54:18.245Z,48.6222
2023-03-29T01:55:19.879Z,48.7572
2023-03-29T01:56:21.571Z,48.3751
2023-03-29T01:57:23.276Z,48.5445
2023-03-29T01:58:24.861Z,48.6674
2023-03-29T01:59:26.500Z,48.4340
2023-03-29T02:00:28.152Z,48.0479
2023-03-29T02:01:29.841Z,48.0121
2023-03-29T02:02:31.560Z,48.1164
2023-03-29T02:03:33.199Z,48.2395
2023-03-29T02:04:34.796Z,48.2883
2023-03-29T02:05:36.409Z,48.2866
2023-03-29T02:06:38.100Z,48.3343
2023-03-29T02:07:39.713Z,48.2841
2023-03-29T02:08:41.386Z,48.1864
2023-03-29T02:09:43.022Z,48.0782
2023-03-29T02:10:44.692Z,47.8870
2023-03-29T02:11:46.353Z,47.9705
2023-03-29T02:12:48.001Z,48.0479
2023-03-29T02:13:49.641Z,48.0497
2023-03-29T02:14:51.304Z,48.2127
2023-03-29T02:15:53.117Z,48.3654
2023-03-29T02:16:54.633Z,48.4607
2023-03-29T02:17:56.262Z,48.3820
2023-03-29T02:18:57.933Z,48.4232
2023-03-29T02:19:59.549Z,48.2236
2023-03-29T02:21:01.441Z,47.8950
2023-03-29T02:22:02.892Z,47.8160
2023-03-29T02:23:04.537Z,47.7287
2023-03-29T02:24:06.156Z,47.7449
2023-03-29T02:25:07.841Z,47.8436
2023-03-29T02:26:09.460Z,47.7825
2023-03-29T02:27:11.178Z,47.8546
2023-03-29T02:28:12.781Z,47.7928
2023-03-29T02:29:14.446Z,47.6658
2023-03-29T02:30:16.083Z,47.7016
2023-03-29T02:31:17.788Z,47.7132
2023-03-29T02:32:19.405Z,47.6149
2023-03-29T02:33:21.048Z,47.5696
2023-03-29T02:34:22.756Z,47.6120
2023-03-29T02:35:24.359Z,47.6087
2023-03-29T02:36:25.987Z,47.6203
2023-03-29T02:37:27.686Z,47.6512
2023-03-29T02:38:29.303Z,47.6181
2023-03-29T02:39:30.972Z,47.5760
2023-03-29T02:40:32.609Z,47.5896
2023-03-29T02:41:34.262Z,47.5084
2023-03-29T02:42:35.949Z,47.5115
2023-03-29T02:43:37.572Z,47.5545
2023-03-29T02:44:39.278Z,47.5430
2023-03-29T02:45:40.936Z,47.5614
2023-03-29T02:46:42.691Z,47.5209
2023-03-29T02:47:44.364Z,47.4978
2023-03-29T02:48:45.887Z,47.5085
2023-03-29T02:49:50.343Z,47.5128
2023-03-29T02:50:49.215Z,47.5216
2023-03-29T02:51:50.844Z,47.5222
2023-03-29T02:52:52.562Z,47.4832
2023-03-29T02:53:54.148Z,47.4405
2023-03-29T02:54:55.829Z,47.4559
2023-03-29T02:55:57.449Z,47.4721
2023-03-29T02:56:59.160Z,47.4263
2023-03-29T02:58:00.780Z,47.3964
2023-03-29T02:59:02.433Z,47.3863
2023-03-29T03:00:04.075Z,47.3547
2023-03-29T03:01:05.730Z,47.3810
2023-03-29T03:02:07.435Z,47.3816
2023-03-29T03:03:09.214Z,47.3977
2023-03-29T03:04:10.749Z,47.3836
2023-03-29T03:05:12.352Z,47.3567
2023-03-29T03:06:14.931Z,47.3602
2023-03-29T03:07:15.663Z,47.3309
2023-03-29T03:08:17.304Z,47.2977
2023-03-29T03:09:18.949Z,47.2723
2023-03-29T03:10:20.601Z,47.2468
2023-03-29T03:11:22.260Z,47.3019
2023-03-29T03:12:23.902Z,47.2812
2023-03-29T03:13:25.590Z,47.2554
2023-03-29T03:14:27.209Z,47.3186
2023-03-29T03:15:28.875Z,47.3241
2023-03-29T03:16:30.588Z,47.3331
2023-03-29T03:17:32.195Z,47.3096
2023-03-29T03:18:33.998Z,47.3390
2023-03-29T03:19:35.485Z,47.3091
2023-03-29T03:20:37.095Z,47.2981
2023-03-29T03:21:38.786Z,47.2999
2023-03-29T03:22:40.420Z,47.3209
2023-03-29T03:23:42.123Z,47.3283
2023-03-29T03:24:43.704Z,47.2849
2023-03-29T03:25:45.366Z,47.2816
2023-03-29T03:26:47.016Z,47.2784
2023-03-29T03:27:48.691Z,47.2639
2023-03-29T03:28:50.351Z,47.2383
2023-03-29T03:29:51.982Z,47.2456
2023-03-29T03:30:53.640Z,47.3098
2023-03-29T03:31:55.310Z,47.3350
2023-03-29T03:32:56.953Z,47.3690
2023-03-29T03:33:58.594Z,47.3440
2023-03-29T03:35:00.216Z,47.3842
2023-03-29T03:36:01.983Z,47.3328
2023-03-29T03:37:03.522Z,47.3474
2023-03-29T03:38:05.195Z,47.3815
2023-03-29T03:39:06.841Z,47.3555
2023-03-29T03:40:08.495Z,47.3426
2023-03-29T03:41:10.133Z,47.3546
2023-03-29T03:42:11.804Z,47.3390
2023-03-29T03:43:13.434Z,47.3471
2023-03-29T03:44:15.134Z,47.3098
2023-03-29T03:45:16.745Z,47.2903
2023-03-29T03:46:18.500Z,47.3234
2023-03-29T03:47:20.046Z,47.3418
2023-03-29T03:48:21.726Z,47.3575
2023-03-29T03:49:23.408Z,47.3574
2023-03-29T03:50:25.024Z,47.3514
2023-03-29T03:51:26.666Z,47.3906
2023-03-29T03:52:28.336Z,47.3573
2023-03-29T03:53:29.973Z,47.3181
2023-03-29T03:54:31.664Z,47.3444
2023-03-29T03:55:33.309Z,47.3518
2023-03-29T03:56:34.964Z,47.3650
2023-03-29T03:57:36.584Z,47.3564
2023-03-29T03:58:38.254Z,47.3483
2023-03-29T03:59:39.919Z,47.3387
2023-03-29T04:00:41.563Z,47.3262
2023-03-29T04:01:43.208Z,47.3560
2023-03-29T04:02:44.904Z,47.3737
2023-03-29T04:03:46.543Z,47.3936
2023-03-29T04:04:48.188Z,47.3950
2023-03-29T04:05:49.812Z,47.4034
2023-03-29T04:06:51.497Z,47.4399
2023-03-29T04:07:53.121Z,47.4308
2023-03-29T04:08:54.792Z,47.4228
2023-03-29T04:09:56.462Z,47.4587
2023-03-29T04:10:58.107Z,47.4758
2023-03-29T04:11:59.745Z,47.4834
2023-03-29T04:13:01.462Z,47.4800
2023-03-29T04:14:03.056Z,47.4646
2023-03-29T04:15:04.748Z,47.4255
2023-03-29T04:16:06.392Z,47.4181
2023-03-29T04:17:08.052Z,47.4109
2023-03-29T04:18:09.757Z,47.3986
2023-03-29T04:19:11.349Z,47.3700
2023-03-29T04:20:13.015Z,47.3884
2023-03-29T04:21:14.648Z,47.3859
2023-03-29T04:22:16.284Z,47.3791
2023-03-29T04:23:17.975Z,47.3598
2023-03-29T04:24:19.604Z,47.3893
2023-03-29T04:25:21.294Z,47.3838
2023-03-29T04:26:22.915Z,47.4039
2023-03-29T04:27:24.565Z,47.4175
2023-03-29T04:28:26.253Z,47.4101
2023-03-29T04:29:27.853Z,47.3713
2023-03-29T04:30:29.546Z,47.3940
2023-03-29T04:31:31.272Z,47.3909
2023-03-29T04:32:32.855Z,47.3791
2023-03-29T04:33:34.472Z,47.3711
2023-03-29T04:34:36.140Z,47.4033
2023-03-29T04:35:37.851Z,47.4168
2023-03-29T04:36:39.453Z,47.4627
2023-03-29T04:37:41.078Z,47.4425
2023-03-29T04:38:46.097Z,47.4249
2023-03-29T04:39:44.380Z,47.4402
2023-03-29T04:40:46.072Z,47.4416
2023-03-29T04:41:47.687Z,47.4251
2023-03-29T04:42:49.365Z,47.3992
2023-03-29T04:43:51.000Z,47.4004
2023-03-29T04:44:52.698Z,47.3670
2023-03-29T04:45:54.379Z,43.2684
2023-03-29T04:46:55.992Z,39.5462
2023-03-29T04:47:57.663Z,37.8775
2023-03-29T04:48:59.317Z,36.6677
2023-03-29T04:50:00.912Z,36.1268
2023-03-29T04:51:02.777Z,36.0776
2023-03-29T04:52:04.226Z,36.5562
2023-03-29T04:53:05.896Z,36.6433
2023-03-29T04:54:07.530Z,36.4885
2023-03-29T04:55:09.232Z,36.9416
2023-03-29T04:56:10.858Z,37.4376
2023-03-29T04:57:12.559Z,38.3518
2023-03-29T04:58:14.121Z,39.4467
2023-03-29T04:59:15.795Z,40.5851
2023-03-29T05:00:17.463Z,41.5234
2023-03-29T05:01:19.171Z,41.9073
2023-03-29T05:02:20.736Z,41.6902
2023-03-29T05:03:22.418Z,41.5770
2023-03-29T05:04:24.065Z,41.4586
2023-03-29T05:05:25.732Z,41.7387
2023-03-29T05:06:27.376Z,41.8607
2023-03-29T05:07:29.085Z,41.9822
2023-03-29T05:08:30.664Z,42.0417
2023-03-29T05:09:35.037Z,42.1882
2023-03-29T05:10:33.977Z,42.2582
2023-03-29T05:11:35.678Z,42.1370
2023-03-29T05:12:37.285Z,41.9844
2023-03-29T05:13:38.937Z,42.1125
2023-03-29T05:14:40.589Z,42.4780
2023-03-29T05:15:42.267Z,42.8200
2023-03-29T05:16:43.999Z,42.7052
2023-03-29T05:17:45.576Z,42.6689
2023-03-29T05:18:47.214Z,42.6528
2023-03-29T05:19:48.883Z,42.5510
2023-03-29T05:20:50.535Z,42.6383
2023-03-29T05:21:52.219Z,42.8146
2023-03-29T05:22:53.858Z,42.9513
2023-03-29T05:23:55.503Z,43.0936
2023-03-29T05:24:57.135Z,43.3454
2023-03-29T05:25:58.808Z,43.6096
2023-03-29T05:27:00.468Z,43.6076
2023-03-29T05:28:02.112Z,43.6229
2023-03-29T05:29:03.749Z,43.7271
2023-03-29T05:30:05.422Z,43.9457
2023-03-29T05:31:07.068Z,44.0704
2023-03-29T05:32:08.857Z,44.1452
2023-03-29T05:33:10.405Z,44.1204
2023-03-29T05:34:12.032Z,44.1092
2023-03-29T05:35:13.661Z,44.1639
2023-03-29T05:36:15.408Z,44.1599
2023-03-29T05:37:17.024Z,44.1522
2023-03-29T05:38:18.648Z,44.2385
2023-03-29T05:39:20.283Z,44.3287
2023-03-29T05:40:21.966Z,44.3685
2023-03-29T05:41:23.622Z,44.8431
2023-03-29T05:42:25.283Z,45.3160
2023-03-29T05:43:26.898Z,45.5206
2023-03-29T05:44:28.581Z,45.5070
2023-03-29T05:45:30.276Z,45.1363
2023-03-29T05:46:31.896Z,45.0485
2023-03-29T05:47:33.637Z,44.6543
2023-03-29T05:48:35.303Z,44.3897
2023-03-29T05:49:36.852Z,44.2437
2023-03-29T05:50:38.476Z,44.2444
2023-03-29T05:51:40.145Z,44.2039
2023-03-29T05:52:41.810Z,44.2330
2023-03-29T05:53:43.466Z,44.3236
2023-03-29T05:54:45.135Z,44.4356
2023-03-29T05:55:46.782Z,44.5888
2023-03-29T05:56:48.456Z,44.7338
2023-03-29T05:57:50.106Z,44.8385
2023-03-29T05:58:53.657Z,44.9355
2023-03-29T05:59:53.411Z,44.9071
2023-03-29T06:00:55.010Z,45.0285
2023-03-29T06:01:56.734Z,45.1814
2023-03-29T06:03:03.780Z,45.1965
2023-03-29T06:04:00.102Z,45.2366
2023-03-29T06:05:01.657Z,45.2139
2023-03-29T06:06:03.310Z,45.3048
2023-03-29T06:07:04.934Z,45.4572
2023-03-29T06:08:06.631Z,45.5532
2023-03-29T06:09:08.250Z,45.5511
2023-03-29T06:10:09.918Z,45.0928
2023-03-29T06:11:11.543Z,40.8930
2023-03-29T06:12:13.216Z,38.4079
2023-03-29T06:13:14.878Z,37.2824
2023-03-29T06:14:16.516Z,36.6653
2023-03-29T06:15:18.156Z,36.0049
2023-03-29T06:16:19.839Z,35.6408
2023-03-29T06:17:21.457Z,35.4652
2023-03-29T06:18:23.180Z,35.7199
2023-03-29T06:19:24.764Z,36.5859
2023-03-29T06:20:26.447Z,37.4764
2023-03-29T06:21:28.063Z,37.1897
2023-03-29T06:22:29.754Z,37.1850
2023-03-29T06:23:31.411Z,37.3079
2023-03-29T06:24:33.044Z,37.3856
2023-03-29T06:25:34.699Z,37.6722
2023-03-29T06:26:36.349Z,37.5097
2023-03-29T06:27:38.008Z,37.6150
2023-03-29T06:28:39.702Z,37.7467
2023-03-29T06:29:41.298Z,37.9042
2023-03-29T06:30:42.962Z,38.1220
2023-03-29T06:31:44.668Z,38.3500
2023-03-29T06:32:46.332Z,38.6200
2023-03-29T06:33:47.931Z,38.8471
2023-03-29T06:34:49.600Z,39.1154
2023-03-29T06:35:51.305Z,39.3667
2023-03-29T06:36:52.888Z,39.5696
2023-03-29T06:37:54.562Z,39.8211
2023-03-29T06:38:56.240Z,39.9732
2023-03-29T06:39:57.841Z,40.1175
2023-03-29T06:40:59.610Z,40.1785
2023-03-29T06:42:10.057Z,40.3687
2023-03-29T06:43:02.804Z,40.5571
2023-03-29T06:44:04.450Z,40.4197
2023-03-29T06:45:06.138Z,40.3906
2023-03-29T06:46:07.790Z,40.4768
2023-03-29T06:47:09.528Z,40.5569
2023-03-29T06:48:11.171Z,40.6681
2023-03-29T06:49:12.869Z,40.5957
2023-03-29T06:50:14.445Z,40.6401
2023-03-29T06:51:16.118Z,40.8083
2023-03-29T06:52:17.744Z,40.9562
2023-03-29T06:53:19.415Z,40.9521
2023-03-29T06:54:21.142Z,41.0224
2023-03-29T06:55:22.721Z,41.3139
2023-03-29T06:56:24.370Z,41.7824
2023-03-29T06:57:26.177Z,42.1300
2023-03-29T06:58:27.662Z,42.3739
2023-03-29T06:59:29.368Z,42.2039
2023-03-29T07:00:30.988Z,42.2240
2023-03-29T07:01:32.651Z,42.3557
2023-03-29T07:02:34.285Z,42.6351
2023-03-29T07:03:35.959Z,42.7511
2023-03-29T07:04:37.670Z,42.8731
2023-03-29T07:05:39.311Z,42.9764
2023-03-29T07:06:40.889Z,42.9953
2023-03-29T07:07:42.559Z,43.0382
2023-03-29T07:08:44.202Z,43.1129
2023-03-29T07:09:45.880Z,43.1665
2023-03-29T07:10:47.602Z,43.2044
2023-03-29T07:11:49.168Z,43.2031
2023-03-29T07:12:50.796Z,43.2137
2023-03-29T07:13:52.490Z,43.2948
2023-03-29T07:14:54.147Z,43.2846
2023-03-29T07:15:55.838Z,43.3433
2023-03-29T07:16:57.445Z,43.4675
2023-03-29T07:17:59.181Z,43.4837
2023-03-29T07:19:00.738Z,43.4883
2023-03-29T07:20:02.499Z,43.5878
2023-03-29T07:21:04.154Z,43.6777
2023-03-29T07:22:05.708Z,43.6674
2023-03-29T07:23:07.370Z,43.5780
2023-03-29T07:24:09.007Z,43.5269
2023-03-29T07:25:10.693Z,43.5599
2023-03-29T07:26:12.323Z,43.7619
2023-03-29T07:27:13.977Z,43.8070
2023-03-29T07:28:15.670Z,43.6428
2023-03-29T07:29:17.288Z,43.7122
2023-03-29T07:30:18.942Z,43.7866
2023-03-29T07:31:20.558Z,43.8555
2023-03-29T07:32:22.497Z,44.0302
2023-03-29T07:33:23.998Z,44.1925
2023-03-29T07:34:25.540Z,44.2744
2023-03-29T07:35:27.189Z,44.2859
2023-03-29T07:36:28.870Z,44.2364
2023-03-29T07:37:30.493Z,44.2966
2023-03-29T07:38:32.179Z,44.3736
2023-03-29T07:39:33.797Z,44.3841
2023-03-29T07:40:35.476Z,44.4575
2023-03-29T07:41:37.099Z,44.5089
2023-03-29T07:42:38.792Z,44.5791
2023-03-29T07:43:40.422Z,44.6155
2023-03-29T07:44:42.097Z,44.6229
2023-03-29T07:45:43.743Z,44.7092
2023-03-29T07:46:45.412Z,44.8297
2023-03-29T07:47:47.032Z,44.9025
2023-03-29T07:48:48.696Z,44.8938
2023-03-29T07:49:50.330Z,44.8429
2023-03-29T07:50:52.048Z,44.8544
2023-03-29T07:51:53.635Z,44.8742
2023-03-29T07:52:55.286Z,44.8801
2023-03-29T07:53:56.958Z,44.8892
2023-03-29T07:54:58.589Z,44.9123
2023-03-29T07:56:00.270Z,44.9564
2023-03-29T07:57:01.978Z,44.9799
2023-03-29T07:58:03.548Z,44.9746
2023-03-29T07:59:05.221Z,44.9657
2023-03-29T08:00:06.856Z,44.9705
2023-03-29T08:01:08.639Z,45.0079
2023-03-29T08:02:10.161Z,45.0497
2023-03-29T08:03:11.895Z,45.0554
2023-03-29T08:04:13.534Z,45.0056
2023-03-29T08:05:17.476Z,45.0169
2023-03-29T08:06:16.838Z,44.9669
2023-03-29T08:07:18.967Z,44.9337
2023-03-29T08:08:20.078Z,44.9577
2023-03-29T08:09:21.766Z,44.9903
2023-03-29T08:10:23.384Z,44.9885
2023-03-29T08:11:25.074Z,44.9910
2023-03-29T08:12:26.700Z,45.0207
2023-03-29T08:13:28.362Z,45.0254
2023-03-29T08:14:30.009Z,45.1012
2023-03-29T08:15:31.667Z,45.1100
2023-03-29T08:16:33.406Z,45.1792
2023-03-29T08:17:35.082Z,45.2450
2023-03-29T08:18:36.737Z,45.2079
2023-03-29T08:19:38.290Z,45.1847
2023-03-29T08:20:39.919Z,45.1742
2023-03-29T08:21:41.619Z,45.2563
2023-03-29T08:22:43.228Z,45.3806
2023-03-29T08:23:44.918Z,45.3693
2023-03-29T08:24:46.547Z,45.3954
2023-03-29T08:25:48.247Z,45.4010
2023-03-29T08:26:49.883Z,45.3731
2023-03-29T08:27:51.520Z,45.3341
2023-03-29T08:28:53.157Z,45.4366
2023-03-29T08:29:54.836Z,45.4760
2023-03-29T08:30:56.485Z,45.4604
2023-03-29T08:31:58.159Z,45.4559
2023-03-29T08:32:59.787Z,45.4982
2023-03-29T08:34:01.437Z,45.4917
2023-03-29T08:35:03.078Z,45.5196
2023-03-29T08:36:04.780Z,45.5539
2023-03-29T08:37:06.414Z,45.5518
2023-03-29T08:38:08.067Z,45.5633
2023-03-29T08:39:09.686Z,45.5875
2023-03-29T08:40:11.363Z,45.5989
2023-03-29T08:41:13.000Z,45.8274
2023-03-29T08:42:14.689Z,46.0124
2023-03-29T08:43:16.287Z,46.0191
2023-03-29T08:44:17.974Z,45.1998
2023-03-29T08:45:19.646Z,44.1276
2023-03-29T08:46:21.346Z,45.3463
2023-03-29T08:47:22.933Z,45.5693
2023-03-29T08:48:24.573Z,45.6559
2023-03-29T08:49:26.251Z,45.7326
2023-03-29T08:50:27.888Z,45.7978
2023-03-29T08:51:29.532Z,45.8421
2023-03-29T08:52:31.290Z,45.7825
2023-03-29T08:53:32.858Z,45.7888
2023-03-29T08:54:34.517Z,45.8511
2023-03-29T08:55:36.145Z,45.8987
2023-03-29T08:56:37.835Z,45.9402
2023-03-29T08:57:39.559Z,46.1371
2023-03-29T08:58:41.134Z,46.2150
2023-03-29T08:59:42.743Z,46.2185
2023-03-29T09:00:44.431Z,46.2470
2023-03-29T09:01:48.447Z,46.2556
2023-03-29T09:02:47.829Z,46.3014
2023-03-29T09:03:49.473Z,46.3189
2023-03-29T09:04:51.013Z,46.2899
2023-03-29T09:05:52.649Z,46.2774
2023-03-29T09:06:54.339Z,46.2496
2023-03-29T09:07:55.976Z,46.2570
2023-03-29T09:08:57.633Z,46.2508
2023-03-29T09:09:59.263Z,46.2583
2023-03-29T09:11:01.091Z,46.3289
2023-03-29T09:12:02.570Z,46.3292
2023-03-29T09:13:04.299Z,46.3899
2023-03-29T09:14:05.879Z,46.4695
2023-03-29T09:15:07.549Z,46.6127
2023-03-29T09:16:09.173Z,46.6077
2023-03-29T09:17:10.868Z,46.5589
2023-03-29T09:18:12.556Z,46.6447
2023-03-29T09:19:14.172Z,46.6994
2023-03-29T09:20:15.802Z,46.7535
2023-03-29T09:21:17.462Z,46.8234
2023-03-29T09:22:20.078Z,46.8648
2023-03-29T09:23:20.793Z,46.9865
2023-03-29T09:24:22.423Z,47.0304
2023-03-29T09:25:24.097Z,47.0695
2023-03-29T09:26:25.740Z,47.0998
2023-03-29T09:27:27.393Z,47.1075
2023-03-29T09:28:29.049Z,47.1168
2023-03-29T09:29:30.703Z,47.1137
2023-03-29T09:30:32.360Z,47.0858
2023-03-29T09:31:34.042Z,47.1068
2023-03-29T09:32:35.706Z,47.1167
2023-03-29T09:33:37.406Z,47.1559
2023-03-29T09:34:38.970Z,47.1316
2023-03-29T09:35:40.640Z,47.1432
2023-03-29T09:36:42.269Z,47.1630
2023-03-29T09:37:43.934Z,47.2129
2023-03-29T09:38:45.604Z,47.2244
2023-03-29T09:39:47.267Z,47.1952
2023-03-29T09:40:48.900Z,47.1961
2023-03-29T09:41:50.545Z,47.2004
2023-03-29T09:42:52.331Z,47.1691
2023-03-29T09:43:53.896Z,47.1890
2023-03-29T09:44:55.489Z,47.1914
2023-03-29T09:45:57.238Z,47.2265
2023-03-29T09:46:58.857Z,47.2663
2023-03-29T09:48:00.572Z,47.2648
2023-03-29T09:49:02.169Z,47.2653
2023-03-29T09:50:03.799Z,47.2365
2023-03-29T09:51:05.431Z,47.2318
2023-03-29T09:52:07.075Z,47.2368
2023-03-29T09:53:08.726Z,47.2493
2023-03-29T09:54:10.436Z,47.2803
2023-03-29T09:55:12.030Z,47.3001
2023-03-29T09:56:13.699Z,47.3126
2023-03-29T09:57:15.415Z,47.3501
2023-03-29T09:58:17.026Z,47.3432
2023-03-29T09:59:18.691Z,47.3680
2023-03-29T10:00:20.313Z,47.3618
2023-03-29T10:01:21.949Z,47.4173
2023-03-29T10:02:23.628Z,47.4112
2023-03-29T10:03:25.241Z,47.3855
2023-03-29T10:04:26.992Z,47.4634
2023-03-29T10:05:28.548Z,47.4790
2023-03-29T10:06:30.215Z,47.5104
2023-03-29T10:07:31.852Z,47.6356
2023-03-29T10:08:33.578Z,47.6965
2023-03-29T10:09:35.200Z,47.8395
2023-03-29T10:10:36.889Z,47.9907
2023-03-29T10:11:38.498Z,48.1578
2023-03-29T10:12:40.138Z,48.2517
2023-03-29T10:13:41.777Z,48.0666
2023-03-29T10:14:43.468Z,47.8739
2023-03-29T10:15:45.103Z,47.9178
2023-03-29T10:16:46.874Z,47.8767
2023-03-29T10:17:48.467Z,47.9453
2023-03-29T10:18:50.061Z,48.0597
2023-03-29T10:19:51.741Z,48.2515
2023-03-29T10:20:53.384Z,48.3995
2023-03-29T10:21:55.023Z,48.4549
2023-03-29T10:22:56.674Z,48.3555
2023-03-29T10:23:58.304Z,48.3391
2023-03-29T10:25:00.031Z,48.3829
2023-03-29T10:26:01.625Z,48.3326
2023-03-29T10:27:03.290Z,48.2787
2023-03-29T10:28:04.935Z,48.4560
2023-03-29T10:29:06.594Z,49.5826
2023-03-29T10:30:08.253Z,50.3493
2023-03-29T10:31:09.928Z,50.1872
2023-03-29T10:32:11.574Z,49.8866
2023-03-29T10:33:13.219Z,49.5087
2023-03-29T10:34:14.830Z,49.4436
2023-03-29T10:35:16.536Z,50.4751
2023-03-29T10:36:18.156Z,50.7046
2023-03-29T10:37:19.818Z,50.4485
2023-03-29T10:38:21.486Z,50.0988
2023-03-29T10:39:23.112Z,50.0644
2023-03-29T10:40:24.787Z,50.9896
2023-03-29T10:41:26.414Z,52.2162
2023-03-29T10:42:28.047Z,52.2841
2023-03-29T10:43:29.799Z,51.4829
2023-03-29T10:44:33.174Z,50.8655
2023-03-29T10:45:33.073Z,50.5788
2023-03-29T10:46:34.789Z,50.2142
2023-03-29T10:47:36.361Z,46.3229
2023-03-29T10:48:38.023Z,44.3605
2023-03-29T10:49:39.656Z,46.8025
2023-03-29T10:50:41.367Z,48.1022
2023-03-29T10:51:43.018Z,49.1479
2023-03-29T10:52:44.650Z,50.0258
2023-03-29T10:53:46.325Z,49.6786
2023-03-29T10:54:47.956Z,48.9875
2023-03-29T10:55:49.657Z,48.6634
2023-03-29T10:56:52.558Z,48.6201
2023-03-29T10:57:52.925Z,48.3576
2023-03-29T10:58:54.574Z,48.6558
2023-03-29T10:59:56.218Z,48.4375
2023-03-29T11:00:57.875Z,48.5309
2023-03-29T11:01:59.561Z,49.0479
2023-03-29T11:03:01.217Z,49.1955
2023-03-29T11:04:02.909Z,49.6076
2023-03-29T11:05:04.441Z,50.8082
2023-03-29T11:06:06.141Z,51.4087
2023-03-29T11:07:07.751Z,50.7127
2023-03-29T11:08:09.439Z,50.3180
2023-03-29T11:09:11.054Z,51.1795
2023-03-29T11:10:12.738Z,50.8425
2023-03-29T11:11:14.406Z,50.3889
2023-03-29T11:12:16.659Z,50.3399
2023-03-29T11:13:17.694Z,50.4850
2023-03-29T11:14:19.331Z,50.4065
2023-03-29T11:15:20.950Z,50.5330
2023-03-29T11:16:22.906Z,50.7812
2023-03-29T11:17:24.275Z,50.6060
2023-03-29T11:18:25.929Z,50.4619
2023-03-29T11:19:27.574Z,50.3054
2023-03-29T11:20:29.241Z,50.0729
2023-03-29T11:21:30.897Z,49.8198
2023-03-29T11:22:32.560Z,49.6528
2023-03-29T11:23:34.196Z,49.5294
2023-03-29T11:24:35.875Z,49.4293
2023-03-29T11:25:37.478Z,49.4028
2023-03-29T11:26:39.203Z,49.3878
2023-03-29T11:27:40.787Z,49.3933
2023-03-29T11:28:42.468Z,49.3719
2023-03-29T11:29:44.126Z,49.3440
2023-03-29T11:30:45.798Z,49.3506
2023-03-29T11:31:47.508Z,49.3435
2023-03-29T11:32:49.086Z,49.3317
2023-03-29T11:33:50.713Z,49.3181
2023-03-29T11:34:52.384Z,49.3070
2023-03-29T11:35:54.064Z,49.3088
2023-03-29T11:36:55.727Z,49.3178
2023-03-29T11:37:57.313Z,49.2901
2023-03-29T11:38:58.968Z,49.2651
2023-03-29T11:40:00.611Z,49.2480
2023-03-29T11:41:02.596Z,49.2219
2023-03-29T11:42:03.935Z,49.2307
2023-03-29T11:43:05.576Z,49.2759
2023-03-29T11:44:07.236Z,49.2622
2023-03-29T11:45:08.874Z,49.2884
2023-03-29T11:46:10.523Z,49.3076
2023-03-29T11:47:12.233Z,49.3010
2023-03-29T11:48:13.821Z,49.3484
2023-03-29T11:49:15.489Z,49.3595
2023-03-29T11:50:17.142Z,49.3527
2023-03-29T11:51:18.791Z,49.8432
2023-03-29T11:52:20.468Z,50.5596
2023-03-29T11:53:22.080Z,51.1160
2023-03-29T11:54:23.758Z,51.4242
2023-03-29T11:55:25.398Z,51.8559
2023-03-29T11:56:27.042Z,52.4853
2023-03-29T11:57:28.861Z,52.4885
2023-03-29T11:58:30.344Z,52.6487
2023-03-29T11:59:31.992Z,52.3696
2023-03-29T12:00:33.659Z,52.2196
2023-03-29T12:01:35.299Z,51.8867
2023-03-29T12:02:37.105Z,52.1389
2023-03-29T12:03:38.797Z,51.2802
2023-03-29T12:04:40.297Z,46.9356
2023-03-29T12:05:41.894Z,43.7600
2023-03-29T12:06:43.578Z,42.2810
2023-03-29T12:07:45.237Z,41.6661
2023-03-29T12:08:46.900Z,40.8620
2023-03-29T12:09:48.516Z,40.4229
2023-03-29T12:10:50.192Z,40.3127
2023-03-29T12:11:51.827Z,40.3603
2023-03-29T12:12:53.548Z,40.0183
2023-03-29T12:13:55.148Z,39.7287
2023-03-29T12:14:57.125Z,39.4035
2023-03-29T12:15:58.454Z,38.8992
2023-03-29T12:17:00.158Z,39.2245
2023-03-29T12:18:01.801Z,39.3265
2023-03-29T12:19:03.411Z,39.4415
2023-03-29T12:20:05.077Z,38.9436
2023-03-29T12:21:06.877Z,38.6665
2023-03-29T12:22:08.363Z,38.3068
2023-03-29T12:23:10.071Z,38.3228
2023-03-29T12:24:11.688Z,38.1494
2023-03-29T12:25:14.312Z,38.3397